Time;durP1;ratioP1;P1;durP2;ratioP2;P2;SDS_P1;SDS_P2;PMS_P1;PMS_P2;Temp;Humidity;BMP_temperature;BMP_pressure;BME280_temperature;BME280_humidity;BME280_pressure;Samples;Min_cycle;Max_cycle;Signal;HPM_P1;HPM_P2
2023/06/26 00:00:08;;;;;;;4.13;3.72;;;;;;;21.16;84.89;100920.28;20904016;28;20505;-78
2023/06/26 00:10:10;;;;;;;4.50;4.10;;;;;;;21.14;84.77;100909.63;20979636;28;20139;-78
2023/06/26 00:20:11;;;;;;;4.30;3.90;;;;;;;21.15;85.02;100905.03;21032210;28;20121;-78
2023/06/26 00:30:14;;;;;;;4.80;4.28;;;;;;;21.13;85.22;100893.53;20982294;28;20643;-78
2023/06/26 00:40:16;;;;;;;4.40;4.00;;;;;;;21.11;85.62;100876.59;20917217;28;20045;-78
2023/06/26 00:50:18;;;;;;;4.97;4.47;;;;;;;21.10;85.36;100866.78;20961434;28;20048;-79
2023/06/26 01:00:20;;;;;;;4.28;3.88;;;;;;;21.10;85.42;100855.94;20893201;28;20049;-78
2023/06/26 01:10:22;;;;;;;4.70;4.22;;;;;;;21.08;85.67;100848.00;20965564;28;20409;-78
2023/06/26 01:20:24;;;;;;;4.80;4.40;;;;;;;21.07;86.00;100827.34;20826396;28;1046360;-78
2023/06/26 01:30:27;;;;;;;5.35;4.85;;;;;;;21.05;85.88;100814.97;20957335;28;20045;-78
2023/06/26 01:40:29;;;;;;;4.85;4.45;;;;;;;21.03;86.81;100809.75;20986993;28;20048;-78
2023/06/26 01:50:31;;;;;;;4.88;4.47;;;;;;;21.01;87.25;100800.94;20938889;28;20049;-79
2023/06/26 02:00:33;;;;;;;5.20;4.72;;;;;;;21.01;87.05;100801.78;20865556;28;20048;-78
2023/06/26 02:10:35;;;;;;;5.00;4.50;;;;;;;21.01;86.69;100784.69;21013147;28;20044;-78
2023/06/26 02:20:39;;;;;;;5.43;4.93;;;;;;;20.99;86.99;100776.72;20971024;28;20047;-79
2023/06/26 02:30:41;;;;;;;5.43;4.93;;;;;;;21.00;87.36;100783.00;21027592;28;20064;-79
2023/06/26 02:40:43;;;;;;;5.88;5.38;;;;;;;20.95;87.63;100786.19;20964508;28;20057;-79
2023/06/26 02:50:46;;;;;;;6.15;5.55;;;;;;;20.99;87.59;100798.38;20892579;28;20041;-79
2023/06/26 03:00:49;;;;;;;5.43;4.93;;;;;;;20.99;87.46;100781.28;20914844;28;20051;-79
2023/06/26 03:10:53;;;;;;;5.50;5.00;;;;;;;20.98;87.55;100780.44;20968458;28;20045;-79
2023/06/26 03:20:56;;;;;;;6.03;5.43;;;;;;;20.98;87.79;100775.03;20943337;28;20450;-79
2023/06/26 03:30:58;;;;;;;5.57;5.07;;;;;;;20.97;87.52;100794.97;20957865;28;20754;-79
2023/06/26 03:41:00;;;;;;;5.75;5.25;;;;;;;20.96;87.01;100793.28;20947511;28;20044;-79
2023/06/26 03:51:02;;;;;;;4.57;4.18;;;;;;;20.97;87.08;100805.81;20941576;28;20036;-79
2023/06/26 04:01:04;;;;;;;5.75;5.25;;;;;;;20.95;87.39;100805.13;20933978;28;20087;-78
2023/06/26 04:11:06;;;;;;;5.63;5.00;;;;;;;20.95;87.45;100797.00;20994026;28;20404;-79
2023/06/26 04:21:12;;;;;;;5.15;4.65;;;;;;;20.90;87.13;100766.88;20930852;28;20148;-79
2023/06/26 04:31:14;;;;;;;5.60;5.10;;;;;;;20.94;87.34;100787.19;20936357;28;20650;-79
2023/06/26 04:41:16;;;;;;;5.53;4.93;;;;;;;20.94;87.70;100808.84;20983324;28;20489;-78
2023/06/26 04:51:20;;;;;;;5.07;4.57;;;;;;;20.95;88.87;100818.66;20949803;28;20049;-79
2023/06/26 05:01:22;;;;;;;5.15;4.35;;;;;;;20.99;90.04;100836.25;20910357;28;20089;-79
2023/06/26 05:11:24;;;;;;;5.25;4.57;;;;;;;21.01;89.64;100839.66;20915440;28;20519;-80
2023/06/26 05:21:26;;;;;;;5.63;4.93;;;;;;;21.03;90.60;100849.47;20912313;28;20041;-79
2023/06/26 05:31:31;;;;;;;4.55;4.05;;;;;;;21.01;89.61;100845.06;20895525;28;20052;-79
2023/06/26 05:41:33;;;;;;;;;;;;;;;21.03;89.88;100857.59;20916021;28;20052;-80
2023/06/26 05:51:35;;;;;;;5.65;4.68;;;;;;;21.01;89.72;100876.72;20908972;28;19924;-79
2023/06/26 06:01:38;;;;;;;6.87;4.90;;;;;;;21.00;89.58;100881.25;20987853;28;20051;-79
2023/06/26 06:11:40;;;;;;;4.93;4.13;;;;;;;20.97;89.76;100905.06;20966849;28;20072;-79
2023/06/26 06:21:43;;;;;;;5.22;4.28;;;;;;;21.05;91.25;100934.06;20927235;28;20076;-76
2023/06/26 06:31:44;;;;;;;4.90;3.75;;;;;;;21.09;91.65;100951.69;20938725;28;20076;-78
2023/06/26 06:41:46;;;;;;;4.32;3.30;;;;;;;21.12;91.64;100982.03;20968812;28;20458;-76
2023/06/26 06:51:47;;;;;;;4.35;3.95;;;;;;;21.12;89.16;101003.69;20972023;28;20052;-80
2023/06/26 07:01:49;;;;;;;4.20;3.80;;;;;;;20.92;88.15;100997.56;21016151;28;20075;-80
2023/06/26 07:11:51;;;;;;;4.28;3.20;;;;;;;21.04;88.34;101033.38;21075071;28;20070;-80
2023/06/26 07:21:54;;;;;;;4.93;3.60;;;;;;;21.10;88.19;101049.00;21074792;28;20552;-80
2023/06/26 07:31:55;;;;;;;3.58;3.28;;;;;;;21.08;87.68;101067.25;21073694;28;20059;-80
2023/06/26 07:42:00;;;;;;;3.80;2.70;;;;;;;21.11;87.43;101071.50;21072211;28;20476;-80
2023/06/26 07:52:01;;;;;;;;;;;;;;;21.13;86.97;101085.72;21072503;28;20060;-80
2023/06/26 08:02:05;;;;;;;3.08;2.72;;;;;;;21.06;86.77;101080.09;21042798;28;19926;-80
2023/06/26 08:12:07;;;;;;;3.58;2.80;;;;;;;21.16;86.71;101090.84;21052024;28;20079;-80
2023/06/26 08:22:11;;;;;;;3.63;2.70;;;;;;;21.28;86.22;101105.00;21051316;28;20495;-80
2023/06/26 08:32:12;;;;;;;3.08;2.40;;;;;;;21.28;85.72;101123.97;21050981;28;20187;-80
2023/06/26 08:42:14;;;;;;;3.15;2.05;;;;;;;21.32;85.58;101135.34;21067257;28;20044;-80
2023/06/26 08:52:23;;;;;;;2.58;2.17;;;;;;;21.37;85.05;101141.97;21058227;28;20041;-80
2023/06/26 09:02:25;;;;;;;3.10;1.80;;;;;;;21.38;84.49;101157.22;21040906;28;20371;-79
2023/06/26 09:12:27;;;;;;;2.65;1.83;;;;;;;21.43;84.12;101164.91;21066668;28;20463;-79
2023/06/26 09:22:33;;;;;;;2.40;1.75;;;;;;;21.43;83.88;101168.47;21066017;28;20044;-79
2023/06/26 09:32:37;;;;;;;2.15;1.85;;;;;;;21.41;83.65;101186.72;21072601;28;20098;-80
2023/06/26 09:42:39;;;;;;;1.95;1.73;;;;;;;21.41;83.51;101189.41;21080978;28;20118;-79
2023/06/26 09:52:41;;;;;;;1.80;1.60;;;;;;;21.40;83.36;101208.53;21043058;28;20098;-79
2023/06/26 10:02:42;;;;;;;2.25;1.60;;;;;;;21.40;83.22;101222.09;21077247;28;20136;-80
2023/06/26 10:12:48;;;;;;;1.83;1.58;;;;;;;21.39;83.46;101213.09;20951542;28;20067;-80
2023/06/26 10:22:50;;;;;;;3.78;2.17;;;;;;;21.41;83.24;101229.22;20971159;28;20050;-79
2023/06/26 10:32:52;;;;;;;2.20;1.55;;;;;;;21.28;82.76;101207.91;20973214;28;20059;-79
2023/06/26 10:43:11;;;;;;;2.70;1.70;;;;;;;21.43;82.31;101230.78;20976189;28;20071;-79
2023/06/26 10:53:26;;;;;;;2.03;1.83;;;;;;;21.40;81.89;101239.19;20917382;28;20708;-77
2023/06/26 11:03:30;;;;;;;2.03;1.35;;;;;;;21.43;81.46;101257.88;20940437;28;20250;-77
2023/06/26 11:13:51;;;;;;;2.85;1.40;;;;;;;21.44;81.15;101272.25;20976046;28;20090;-76
2023/06/26 11:23:58;;;;;;;2.05;1.45;;;;;;;21.47;80.92;101271.94;20999195;28;20413;-78
2023/06/26 11:34:01;;;;;;;2.42;1.27;;;;;;;21.50;80.60;101271.63;20947472;28;20389;-79
2023/06/26 11:44:05;;;;;;;1.83;1.40;;;;;;;21.52;79.79;101298.59;20920480;28;20728;-77
2023/06/26 11:54:06;;;;;;;2.00;1.50;;;;;;;21.52;79.77;101298.59;20975368;28;20573;-76
2023/06/26 12:04:09;;;;;;;1.88;1.25;;;;;;;21.53;78.63;101320.09;20963069;28;20048;-80
2023/06/26 12:14:12;;;;;;;2.10;1.17;;;;;;;21.56;78.31;101319.78;20931107;28;20572;-77
2023/06/26 12:24:17;;;;;;;2.03;1.00;;;;;;;21.57;78.44;101351.28;20922239;28;20110;-77
2023/06/26 12:34:21;;;;;;;1.20;1.00;;;;;;;21.61;78.88;101361.81;20917689;28;20417;-76
2023/06/26 12:44:26;;;;;;;1.10;0.90;;;;;;;21.65;78.41;101368.69;20928997;28;20047;-80
2023/06/26 12:54:28;;;;;;;2.10;0.85;;;;;;;21.67;77.77;101372.13;20899483;28;20134;-79
2023/06/26 13:04:30;;;;;;;1.13;0.98;;;;;;;21.72;76.64;101378.78;20905021;28;20562;-80
2023/06/26 13:14:32;;;;;;;1.13;1.00;;;;;;;21.75;76.41;101380.34;20946006;28;20680;-77
2023/06/26 13:24:34;;;;;;;0.90;0.70;;;;;;;21.79;75.44;101386.31;20954598;28;20052;-82
2023/06/26 13:34:35;;;;;;;1.67;0.80;;;;;;;21.82;74.38;101386.88;20919820;28;20080;-80
2023/06/26 13:44:37;;;;;;;1.17;0.80;;;;;;;21.84;74.39;101393.00;20910797;28;20063;-80
2023/06/26 13:54:52;;;;;;;1.15;0.90;;;;;;;21.85;74.80;101397.41;20898710;28;20048;-73
2023/06/26 14:04:54;;;;;;;1.40;0.90;;;;;;;21.88;74.54;101413.38;20921771;28;20044;-71
2023/06/26 14:14:56;;;;;;;1.77;0.90;;;;;;;21.97;74.08;101411.63;20899058;28;20135;-72
2023/06/26 14:24:57;;;;;;;1.30;0.70;;;;;;;22.01;74.48;101423.00;20903236;28;20132;-70
2023/06/26 14:34:59;;;;;;;1.70;0.77;;;;;;;22.02;74.67;101430.13;20969062;28;20103;-71
2023/06/26 14:45:01;;;;;;;2.33;0.80;;;;;;;22.00;73.84;101427.56;20937630;28;20444;-71
2023/06/26 14:55:04;;;;;;;1.00;0.75;;;;;;;22.00;73.41;101434.84;20933453;28;20061;-71
2023/06/26 15:05:08;;;;;;;0.57;0.55;;;;;;;21.99;73.22;101449.41;20905614;28;20161;-70
2023/06/26 15:15:10;;;;;;;1.02;0.70;;;;;;;21.89;74.39;101454.88;20913439;28;20397;-70
2023/06/26 15:25:12;;;;;;;2.78;1.02;;;;;;;21.71;75.42;101447.53;20903070;28;20053;-68
2023/06/26 15:35:13;;;;;;;3.85;1.00;;;;;;;21.65;77.85;101452.66;20906571;28;20095;-71
2023/06/26 15:45:17;;;;;;;10.45;3.65;;;;;;;21.64;80.68;101468.09;20901815;28;20456;-71
2023/06/26 15:55:19;;;;;;;7.47;3.25;;;;;;;21.66;81.63;101468.78;20879891;28;20144;-71
2023/06/26 16:05:21;;;;;;;10.73;3.63;;;;;;;21.68;81.86;101474.09;20912846;28;20116;-71
2023/06/26 16:15:23;;;;;;;6.68;3.13;;;;;;;21.66;81.23;101476.09;20906541;28;20558;-72
2023/06/26 16:25:25;;;;;;;7.70;3.10;;;;;;;21.66;80.60;101476.09;20966714;28;20048;-71
2023/06/26 16:35:27;;;;;;;3.95;1.98;;;;;;;21.65;79.12;101479.78;20915706;28;20047;-70
2023/06/26 16:45:28;;;;;;;6.18;2.38;;;;;;;21.63;78.58;101468.19;20944588;28;20060;-70
2023/06/26 16:55:30;;;;;;;6.20;2.60;;;;;;;21.60;76.71;101466.66;20938603;28;20135;-68
2023/06/26 17:05:32;;;;;;;5.50;2.30;;;;;;;21.58;75.62;101480.31;20917007;28;20102;-71
2023/06/26 17:15:37;;;;;;;4.17;1.60;;;;;;;21.58;74.84;101493.03;20920838;28;20554;-66
2023/06/26 17:25:38;;;;;;;5.22;2.17;;;;;;;21.56;74.05;101497.75;20929178;28;20504;-66
2023/06/26 17:35:40;;;;;;;4.32;1.80;;;;;;;21.53;73.57;101498.03;20929833;28;20443;-66
2023/06/26 17:45:42;;;;;;;4.20;1.95;;;;;;;21.52;73.39;101518.84;20936485;28;20044;-66
2023/06/26 17:55:43;;;;;;;4.68;1.90;;;;;;;21.49;73.26;101515.59;20947331;28;20044;-66
2023/06/26 18:05:45;;;;;;;5.32;1.50;;;;;;;21.43;72.57;101519.72;20958134;28;20056;-66
2023/06/26 18:15:47;;;;;;;4.95;1.80;;;;;;;21.41;71.44;101530.69;20977639;28;20135;-66
2023/06/26 18:25:48;;;;;;;3.47;1.80;;;;;;;21.38;70.85;101554.50;20993701;28;20049;-66
2023/06/26 18:35:50;;;;;;;2.58;1.30;;;;;;;21.37;70.42;101552.81;20992658;28;20080;-66
2023/06/26 18:45:51;;;;;;;3.38;1.30;;;;;;;21.34;69.17;101558.50;21027948;28;20040;-66
2023/06/26 18:55:53;;;;;;;3.08;1.40;;;;;;;21.32;68.19;101560.50;21077380;28;20102;-66
2023/06/26 19:05:55;;;;;;;3.00;1.30;;;;;;;21.30;67.97;101563.34;21076156;28;20052;-66
2023/06/26 19:15:56;;;;;;;2.63;1.23;;;;;;;21.28;68.70;101578.88;21058106;28;20484;-66
2023/06/26 19:25:58;;;;;;;3.38;1.20;;;;;;;21.26;67.78;101580.88;21075179;28;20142;-66
2023/06/26 19:36:00;;;;;;;1.42;1.00;;;;;;;21.25;66.89;101593.59;21074766;28;20048;-66
2023/06/26 19:46:02;;;;;;;3.25;1.40;;;;;;;21.23;68.75;101598.28;21064236;28;20083;-66
2023/06/26 19:56:05;;;;;;;4.38;1.58;;;;;;;21.22;68.75;101599.28;21072711;28;20044;-66
2023/06/26 20:06:06;;;;;;;3.50;1.63;;;;;;;21.20;68.72;101606.66;21054070;28;20044;-66
2023/06/26 20:58:45;;;;;;;1.73;0.90;;;;;;;21.32;68.24;101641.75;21073812;27;20505;-64
2023/06/26 21:08:47;;;;;;;2.70;1.02;;;;;;;21.18;67.37;101649.28;21054474;28;20084;-64
2023/06/26 21:18:49;;;;;;;2.70;1.10;;;;;;;21.11;67.52;101645.41;21052861;28;20428;-63
2023/06/26 21:28:50;;;;;;;2.42;1.00;;;;;;;21.05;67.60;101640.56;21052816;28;20048;-63
2023/06/26 21:38:52;;;;;;;2.00;0.90;;;;;;;21.00;67.40;101639.13;21092665;28;20048;-63
2023/06/26 21:48:54;;;;;;;2.40;1.00;;;;;;;20.98;67.29;101642.97;21135482;28;20044;-64
2023/06/26 21:58:55;;;;;;;2.42;1.10;;;;;;;20.96;67.07;101642.25;21082959;28;20056;-63
2023/06/26 22:08:57;;;;;;;3.10;1.17;;;;;;;20.95;66.89;101636.00;21078083;28;20213;-64
2023/06/26 22:18:58;;;;;;;1.45;0.90;;;;;;;20.92;66.87;101629.97;21076485;28;20082;-63
2023/06/26 22:29:00;;;;;;;1.83;0.70;;;;;;;20.92;66.72;101629.97;21076063;28;20090;-63
2023/06/26 22:39:03;;;;;;;2.15;1.00;;;;;;;20.89;66.66;101630.25;21058578;28;20051;-63
2023/06/26 22:49:06;;;;;;;2.17;0.80;;;;;;;20.89;66.59;101624.84;21072804;28;20043;-64
2023/06/26 22:59:07;;;;;;;1.50;0.90;;;;;;;20.86;66.56;101623.28;21032917;28;20051;-63
2023/06/26 23:09:10;;;;;;;1.05;0.70;;;;;;;20.85;66.46;101618.88;20982276;28;20063;-63
2023/06/26 23:19:12;;;;;;;1.30;0.70;;;;;;;20.82;66.40;101619.16;20942702;28;20392;-63
2023/06/26 23:29:17;;;;;;;1.10;0.80;;;;;;;20.81;66.64;101614.75;20903289;28;20123;-63
2023/06/26 23:39:19;;;;;;;2.33;0.70;;;;;;;20.79;66.58;101606.75;21048058;28;20052;-63
2023/06/26 23:49:26;;;;;;;1.27;0.75;;;;;;;20.77;65.97;101607.84;21069101;28;20501;-63
2023/06/26 23:59:28;;;;;;;;;;;;;;;20.76;66.53;101611.53;21069116;28;20105;-63
